sensor_id;sensor_type;location;lat;lon;timestamp;pressure;altitude;pressure_sealevel;temperature;humidity
58739;BME280;44512;53.046;18.604;2023-02-02T00:04:29;100319.43;;;4.70;71.93
58739;BME280;44512;53.046;18.604;2023-02-02T00:14:45;100311.39;;;4.70;72.07
58739;BME280;44512;53.046;18.604;2023-02-02T00:25:13;100308.52;;;4.72;72.35
58739;BME280;44512;53.046;18.604;2023-02-02T00:35:41;100305.66;;;4.74;72.69
58739;BME280;44512;53.046;18.604;2023-02-02T00:46:16;100302.98;;;4.74;72.68
58739;BME280;44512;53.046;18.604;2023-02-02T00:56:39;100301.96;;;4.75;72.40
58739;BME280;44512;53.046;18.604;2023-02-02T01:07:06;100297.28;;;4.77;72.15
58739;BME280;44512;53.046;18.604;2023-02-02T01:17:37;100288.04;;;4.79;71.92
58739;BME280;44512;53.046;18.604;2023-02-02T01:28:04;100287.52;;;4.84;71.68
58739;BME280;44512;53.046;18.604;2023-02-02T01:38:32;100279.48;;;4.84;71.10
58739;BME280;44512;53.046;18.604;2023-02-02T01:49:10;100267.59;;;4.86;70.85
58739;BME280;44512;53.046;18.604;2023-02-02T01:59:30;100275.44;;;4.88;70.67
58739;BME280;44512;53.046;18.604;2023-02-02T02:09:57;100271.25;;;4.85;70.47
58739;BME280;44512;53.046;18.604;2023-02-02T02:20:41;100265.24;;;4.83;70.18
58739;BME280;44512;53.046;18.604;2023-02-02T02:41:27;100243.61;;;4.85;69.76
58739;BME280;44512;53.046;18.604;2023-02-02T02:51:52;100226.69;;;4.84;69.78
58739;BME280;44512;53.046;18.604;2023-02-02T03:12:49;100204.58;;;4.82;69.68
58739;BME280;44512;53.046;18.604;2023-02-02T03:23:16;100202.73;;;4.83;69.81
58739;BME280;44512;53.046;18.604;2023-02-02T03:33:44;100183.32;;;4.81;70.43
58739;BME280;44512;53.046;18.604;2023-02-02T03:44:12;100168.89;;;4.82;70.92
58739;BME280;44512;53.046;18.604;2023-02-02T03:54:41;100164.83;;;4.86;70.98
58739;BME280;44512;53.046;18.604;2023-02-02T04:05:09;100149.45;;;4.80;70.77
58739;BME280;44512;53.046;18.604;2023-02-02T04:15:38;100146.00;;;4.71;70.96
58739;BME280;44512;53.046;18.604;2023-02-02T04:26:07;100133.95;;;4.67;71.15
58739;BME280;44512;53.046;18.604;2023-02-02T04:36:34;100131.46;;;4.65;71.34
58739;BME280;44512;53.046;18.604;2023-02-02T04:47:03;100130.75;;;4.72;71.32
58739;BME280;44512;53.046;18.604;2023-02-02T04:57:31;100135.73;;;4.75;71.13
58739;BME280;44512;53.046;18.604;2023-02-02T05:08:00;100140.48;;;4.64;70.77
58739;BME280;44512;53.046;18.604;2023-02-02T05:18:28;100136.73;;;4.51;70.86
58739;BME280;44512;53.046;18.604;2023-02-02T05:28:56;100146.30;;;4.45;71.01
58739;BME280;44512;53.046;18.604;2023-02-02T05:39:24;100147.84;;;4.39;70.92
58739;BME280;44512;53.046;18.604;2023-02-02T05:49:53;100156.03;;;4.38;70.99
58739;BME280;44512;53.046;18.604;2023-02-02T06:00:22;100186.19;;;4.40;70.95
58739;BME280;44512;53.046;18.604;2023-02-02T06:10:50;100192.20;;;4.42;70.98
58739;BME280;44512;53.046;18.604;2023-02-02T06:21:18;100226.20;;;4.41;70.88
58739;BME280;44512;53.046;18.604;2023-02-02T06:31:46;100249.45;;;4.49;70.97
58739;BME280;44512;53.046;18.604;2023-02-02T06:42:15;100266.86;;;4.53;70.74
58739;BME280;44512;53.046;18.604;2023-02-02T06:52:49;100299.38;;;4.50;70.65
58739;BME280;44512;53.046;18.604;2023-02-02T07:03:12;100331.18;;;4.53;70.81
58739;BME280;44512;53.046;18.604;2023-02-02T07:13:40;100357.98;;;4.53;70.66
58739;BME280;44512;53.046;18.604;2023-02-02T07:24:09;100387.98;;;4.57;70.69
58739;BME280;44512;53.046;18.604;2023-02-02T07:34:38;100407.91;;;4.62;70.56
58739;BME280;44512;53.046;18.604;2023-02-02T07:45:06;100427.66;;;4.69;70.42
58739;BME280;44512;53.046;18.604;2023-02-02T07:55:34;100464.87;;;4.73;70.41
58739;BME280;44512;53.046;18.604;2023-02-02T08:06:11;100489.66;;;4.75;70.47
58739;BME280;44512;53.046;18.604;2023-02-02T08:16:31;100498.40;;;4.77;70.74
58739;BME280;44512;53.046;18.604;2023-02-02T08:26:59;100521.51;;;4.78;70.99
58739;BME280;44512;53.046;18.604;2023-02-02T08:37:28;100552.67;;;4.79;71.08
58739;BME280;44512;53.046;18.604;2023-02-02T08:47:56;100572.80;;;4.83;71.24
58739;BME280;44512;53.046;18.604;2023-02-02T08:58:25;100594.25;;;4.83;71.59
58739;BME280;44512;53.046;18.604;2023-02-02T09:08:52;100619.74;;;4.87;71.81
58739;BME280;44512;53.046;18.604;2023-02-02T09:19:21;100652.27;;;4.92;72.24
58739;BME280;44512;53.046;18.604;2023-02-02T09:34:52;100677.24;;;5.01;72.50
58739;BME280;44512;53.046;18.604;2023-02-02T09:45:38;100701.41;;;5.09;72.59
58739;BME280;44512;53.046;18.604;2023-02-02T09:55:51;100740.81;;;5.16;72.55
58739;BME280;44512;53.046;18.604;2023-02-02T10:16:48;100790.64;;;5.27;72.19
58739;BME280;44512;53.046;18.604;2023-02-02T10:27:16;100808.45;;;5.28;71.50
58739;BME280;44512;53.046;18.604;2023-02-02T10:37:51;100837.81;;;5.30;71.32
58739;BME280;44512;53.046;18.604;2023-02-02T10:48:19;100857.96;;;5.34;70.73
58739;BME280;44512;53.046;18.604;2023-02-02T10:58:47;100882.60;;;5.37;69.90
58739;BME280;44512;53.046;18.604;2023-02-02T11:09:11;100896.38;;;5.42;69.65
58739;BME280;44512;53.046;18.604;2023-02-02T11:19:36;100914.69;;;5.47;69.36
58739;BME280;44512;53.046;18.604;2023-02-02T11:30:21;100949.28;;;5.50;69.00
58739;BME280;44512;53.046;18.604;2023-02-02T11:40:39;100961.70;;;5.51;68.42
58739;BME280;44512;53.046;18.604;2023-02-02T11:51:03;100976.79;;;5.52;68.06
58739;BME280;44512;53.046;18.604;2023-02-02T12:01:33;100963.72;;;5.57;67.10
58739;BME280;44512;53.046;18.604;2023-02-02T12:22:37;101003.03;;;5.58;65.29
58739;BME280;44512;53.046;18.604;2023-02-02T12:33:05;101021.31;;;5.63;64.92
58739;BME280;44512;53.046;18.604;2023-02-02T13:14:56;101083.89;;;5.55;62.04
58739;BME280;44512;53.046;18.604;2023-02-02T13:25:22;101101.37;;;5.59;61.53
58739;BME280;44512;53.046;18.604;2023-02-02T13:35:54;101124.20;;;5.63;61.07
58739;BME280;44512;53.046;18.604;2023-02-02T14:07:11;101196.78;;;5.71;58.53
58739;BME280;44512;53.046;18.604;2023-02-02T14:17:48;101224.48;;;5.72;58.35
58739;BME280;44512;53.046;18.604;2023-02-02T14:28:12;101246.80;;;5.72;57.65
58739;BME280;44512;53.046;18.604;2023-02-02T14:38:47;101278.20;;;5.72;56.85
58739;BME280;44512;53.046;18.604;2023-02-02T14:49:07;101298.84;;;5.71;56.64
58739;BME280;44512;53.046;18.604;2023-02-02T14:59:38;101355.54;;;5.68;56.86
58739;BME280;44512;53.046;18.604;2023-02-02T15:10:01;101382.02;;;5.63;57.20
58739;BME280;44512;53.046;18.604;2023-02-02T15:20:36;101406.36;;;5.62;57.51
58739;BME280;44512;53.046;18.604;2023-02-02T15:41:35;101480.37;;;5.46;57.77
58739;BME280;44512;53.046;18.604;2023-02-02T15:51:56;101513.62;;;5.36;58.65
58739;BME280;44512;53.046;18.604;2023-02-02T16:12:51;101541.09;;;5.20;59.79
58739;BME280;44512;53.046;18.604;2023-02-02T16:23:26;101590.66;;;5.16;60.35
58739;BME280;44512;53.046;18.604;2023-02-02T16:33:48;101618.23;;;5.08;61.05
58739;BME280;44512;53.046;18.604;2023-02-02T16:54:53;101676.41;;;4.98;61.13
58739;BME280;44512;53.046;18.604;2023-02-02T17:05:25;101700.40;;;4.90;61.50
58739;BME280;44512;53.046;18.604;2023-02-02T17:15:41;101724.84;;;4.87;61.42
58739;BME280;44512;53.046;18.604;2023-02-02T17:26:11;101735.70;;;4.76;61.04
58739;BME280;44512;53.046;18.604;2023-02-02T17:36:38;101766.16;;;4.75;60.52
58739;BME280;44512;53.046;18.604;2023-02-02T17:47:11;101790.41;;;4.63;60.15
58739;BME280;44512;53.046;18.604;2023-02-02T17:57:35;101813.85;;;4.61;59.95
58739;BME280;44512;53.046;18.604;2023-02-02T18:08:03;101855.57;;;4.54;59.54
58739;BME280;44512;53.046;18.604;2023-02-02T18:18:32;101862.46;;;4.47;59.35
58739;BME280;44512;53.046;18.604;2023-02-02T18:29:00;101898.70;;;4.41;59.35
58739;BME280;44512;53.046;18.604;2023-02-02T18:39:29;101910.80;;;4.36;59.39
58739;BME280;44512;53.046;18.604;2023-02-02T18:49:57;101937.85;;;4.33;59.20
58739;BME280;44512;53.046;18.604;2023-02-02T19:00:25;101938.13;;;4.30;59.05
58739;BME280;44512;53.046;18.604;2023-02-02T19:10:59;101951.77;;;4.27;58.93
58739;BME280;44512;53.046;18.604;2023-02-02T19:21:22;101960.20;;;4.22;58.75
58739;BME280;44512;53.046;18.604;2023-02-02T19:32:01;101974.97;;;4.16;58.46
58739;BME280;44512;53.046;18.604;2023-02-02T19:42:19;101969.13;;;4.11;58.17
58739;BME280;44512;53.046;18.604;2023-02-02T19:52:48;101992.65;;;4.08;57.94
58739;BME280;44512;53.046;18.604;2023-02-02T20:03:18;102004.15;;;3.99;57.82
58739;BME280;44512;53.046;18.604;2023-02-02T20:13:46;102021.95;;;3.77;57.70
58739;BME280;44512;53.046;18.604;2023-02-02T20:24:18;102019.45;;;3.53;57.39
58739;BME280;44512;53.046;18.604;2023-02-02T20:34:44;102054.13;;;3.32;57.20
58739;BME280;44512;53.046;18.604;2023-02-02T20:45:15;102066.89;;;3.18;57.20
58739;BME280;44512;53.046;18.604;2023-02-02T20:55:38;102064.68;;;3.00;57.02
58739;BME280;44512;53.046;18.604;2023-02-02T21:06:06;102076.08;;;2.91;56.91
58739;BME280;44512;53.046;18.604;2023-02-02T21:16:35;102105.21;;;2.83;57.06
58739;BME280;44512;53.046;18.604;2023-02-02T21:27:03;102095.20;;;2.74;56.98
58739;BME280;44512;53.046;18.604;2023-02-02T21:37:34;102101.06;;;2.79;56.91
58739;BME280;44512;53.046;18.604;2023-02-02T21:48:04;102123.77;;;2.73;56.74
58739;BME280;44512;53.046;18.604;2023-02-02T21:58:33;102123.59;;;2.64;56.87
58739;BME280;44512;53.046;18.604;2023-02-02T22:09:11;102142.04;;;2.55;57.16
58739;BME280;44512;53.046;18.604;2023-02-02T22:19:32;102147.61;;;2.52;57.45
58739;BME280;44512;53.046;18.604;2023-02-02T22:29:57;102150.07;;;2.55;57.81
58739;BME280;44512;53.046;18.604;2023-02-02T22:40:22;102148.37;;;2.54;58.15
58739;BME280;44512;53.046;18.604;2023-02-02T22:50:50;102159.91;;;2.55;58.58
58739;BME280;44512;53.046;18.604;2023-02-02T23:01:19;102180.66;;;2.51;59.05
58739;BME280;44512;53.046;18.604;2023-02-02T23:11:47;102166.50;;;2.38;59.51
58739;BME280;44512;53.046;18.604;2023-02-02T23:22:16;102180.72;;;2.39;59.88
58739;BME280;44512;53.046;18.604;2023-02-02T23:32:44;102177.52;;;2.33;60.17
58739;BME280;44512;53.046;18.604;2023-02-02T23:43:13;102189.72;;;2.25;60.44
58739;BME280;44512;53.046;18.604;2023-02-02T23:53:41;102190.38;;;2.16;60.71
